createdAt,value
2017-12-28T00:01:59.523Z,11.70
2017-12-28T00:04:27.872Z,10.40
2017-12-28T00:06:56.309Z,9.80
2017-12-28T00:09:24.650Z,9.47
2017-12-28T00:11:53.743Z,10.80
2017-12-28T00:14:22.835Z,10.97
2017-12-28T00:16:51.943Z,10.27
2017-12-28T00:19:20.288Z,11.07
2017-12-28T00:21:48.648Z,11.13
2017-12-28T00:24:16.986Z,10.63
2017-12-28T00:26:45.341Z,10.43
2017-12-28T00:29:13.784Z,9.80
2017-12-28T00:31:42.112Z,10.80
2017-12-28T00:34:11.231Z,12.40
2017-12-28T00:36:39.706Z,10.97
2017-12-28T00:39:08.049Z,10.93
2017-12-28T00:41:36.404Z,12.57
2017-12-28T00:44:04.726Z,11.60
2017-12-28T00:46:33.849Z,13.63
2017-12-28T00:49:02.185Z,13.03
2017-12-28T00:51:30.618Z,10.23
2017-12-28T00:53:59.724Z,11.67
2017-12-28T00:56:28.050Z,14.73
2017-12-28T00:58:57.155Z,11.13
2017-12-28T01:01:25.504Z,10.27
2017-12-28T01:03:53.863Z,12.47
2017-12-28T01:06:22.200Z,13.33
2017-12-28T01:08:50.543Z,10.73
2017-12-28T01:11:18.876Z,10.63
2017-12-28T01:13:47.212Z,9.80
2017-12-28T01:16:15.681Z,12.07
2017-12-28T01:18:43.990Z,10.93
2017-12-28T01:21:12.331Z,13.33
2017-12-28T01:23:40.680Z,11.47
2017-12-28T01:26:09.243Z,13.03
2017-12-28T01:28:37.607Z,11.63
2017-12-28T01:31:06.890Z,10.70
2017-12-28T01:33:35.307Z,11.13
2017-12-28T01:36:03.659Z,9.63
2017-12-28T01:38:31.985Z,11.63
2017-12-28T01:41:00.320Z,10.00
2017-12-28T01:43:29.440Z,10.03
2017-12-28T01:45:57.820Z,10.77
2017-12-28T01:48:26.155Z,12.10
2017-12-28T01:50:54.502Z,12.63
2017-12-28T01:53:22.972Z,10.70
2017-12-28T01:55:51.398Z,9.70
2017-12-28T01:58:20.544Z,11.73
2017-12-28T02:00:48.871Z,13.30
2017-12-28T02:03:17.200Z,12.57
2017-12-28T02:05:45.549Z,15.57
2017-12-28T02:08:14.646Z,10.33
2017-12-28T02:10:43.023Z,12.60
2017-12-28T02:13:12.133Z,13.13
2017-12-28T02:15:40.450Z,13.90
2017-12-28T02:18:08.918Z,13.40
2017-12-28T02:20:37.233Z,13.63
2017-12-28T02:23:05.665Z,16.13
2017-12-28T02:25:34.127Z,14.87
2017-12-28T02:28:03.336Z,19.23
2017-12-28T02:30:31.714Z,14.97
2017-12-28T02:33:00.059Z,10.73
2017-12-28T02:35:29.304Z,6.33
2017-12-28T02:37:57.637Z,6.20
2017-12-28T02:40:26.739Z,5.40
2017-12-28T02:42:55.853Z,5.23
2017-12-28T02:45:24.196Z,5.90
2017-12-28T02:47:52.550Z,4.37
2017-12-28T02:50:20.863Z,5.60
2017-12-28T02:52:49.997Z,5.30
2017-12-28T02:55:18.322Z,4.27
2017-12-28T02:57:46.642Z,4.57
2017-12-28T03:00:14.979Z,4.07
2017-12-28T03:02:43.306Z,3.37
2017-12-28T03:05:11.651Z,2.87
2017-12-28T03:07:41.400Z,3.70
2017-12-28T03:10:09.741Z,3.13
2017-12-28T03:12:38.157Z,3.00
2017-12-28T03:15:06.489Z,4.77
2017-12-28T03:17:34.841Z,3.30
2017-12-28T03:20:03.204Z,2.90
2017-12-28T03:22:31.555Z,3.13
2017-12-28T03:25:00.654Z,2.67
2017-12-28T03:27:29.003Z,5.20
2017-12-28T03:29:57.353Z,2.57
2017-12-28T03:32:25.837Z,4.17
2017-12-28T03:34:54.159Z,2.83
2017-12-28T03:37:23.262Z,4.57
2017-12-28T03:39:52.358Z,3.03
2017-12-28T03:42:20.695Z,3.83
2017-12-28T03:44:49.034Z,2.33
2017-12-28T03:47:17.375Z,3.67
2017-12-28T03:49:45.720Z,2.43
2017-12-28T03:52:14.058Z,3.33
2017-12-28T03:54:42.446Z,3.10
2017-12-28T03:57:10.772Z,4.30
2017-12-28T03:59:39.134Z,3.73
2017-12-28T04:02:07.479Z,4.00
2017-12-28T04:04:35.819Z,4.20
2017-12-28T04:07:04.246Z,6.03
2017-12-28T04:09:32.576Z,2.57
2017-12-28T04:12:00.921Z,3.13
2017-12-28T04:14:29.271Z,6.67
2017-12-28T04:16:57.657Z,4.17
2017-12-28T04:19:26.258Z,7.50
2017-12-28T04:21:54.564Z,6.93
2017-12-28T04:24:22.921Z,8.57
2017-12-28T04:26:51.276Z,7.93
2017-12-28T04:29:19.594Z,5.63
2017-12-28T04:31:47.925Z,6.33
2017-12-28T04:34:16.399Z,4.30
2017-12-28T04:36:46.245Z,6.07
2017-12-28T04:39:14.654Z,7.67
2017-12-28T04:41:43.086Z,6.10
2017-12-28T04:44:11.416Z,3.77
2017-12-28T04:46:39.829Z,6.33
2017-12-28T04:49:08.175Z,4.37
2017-12-28T04:51:36.510Z,9.10
2017-12-28T04:54:04.891Z,2.97
2017-12-28T04:56:33.208Z,5.87
2017-12-28T04:59:01.640Z,6.53
2017-12-28T05:01:30.000Z,8.83
2017-12-28T05:03:59.094Z,7.07
2017-12-28T05:06:27.452Z,5.37
2017-12-28T05:08:56.021Z,3.90
2017-12-28T05:11:24.401Z,5.80
2017-12-28T05:13:52.741Z,5.87
2017-12-28T05:16:21.071Z,5.03
2017-12-28T05:18:49.504Z,5.67
2017-12-28T05:21:17.843Z,6.43
2017-12-28T05:23:46.184Z,6.90
2017-12-28T05:26:14.531Z,4.73
2017-12-28T05:28:42.875Z,9.70
2017-12-28T05:31:11.233Z,5.73
2017-12-28T05:33:39.698Z,4.73
2017-12-28T05:36:08.015Z,7.23
2017-12-28T05:38:37.126Z,5.77
2017-12-28T05:41:06.677Z,7.03
2017-12-28T05:43:35.075Z,5.47
2017-12-28T05:46:03.423Z,8.97
2017-12-28T05:48:31.752Z,5.17
2017-12-28T05:51:00.850Z,7.03
2017-12-28T05:53:29.938Z,8.10
2017-12-28T05:55:58.275Z,5.27
2017-12-28T05:58:26.642Z,7.23
2017-12-28T06:00:55.003Z,10.00
2017-12-28T06:03:23.349Z,7.93
2017-12-28T06:05:51.671Z,7.00
2017-12-28T06:08:20.052Z,8.37
2017-12-28T06:10:48.380Z,7.20
2017-12-28T06:13:16.737Z,11.77
2017-12-28T06:15:45.078Z,7.50
2017-12-28T06:18:13.425Z,5.20
2017-12-28T06:20:41.758Z,5.23
2017-12-28T06:23:10.282Z,8.20
2017-12-28T06:25:38.656Z,7.43
2017-12-28T06:28:06.994Z,7.60
2017-12-28T06:30:35.340Z,5.73
2017-12-28T06:33:04.468Z,8.07
2017-12-28T06:35:32.800Z,6.57
2017-12-28T06:38:01.232Z,6.00
2017-12-28T06:40:29.539Z,7.73
2017-12-28T06:42:57.863Z,5.63
2017-12-28T06:45:26.208Z,7.97
2017-12-28T06:47:54.645Z,11.47
2017-12-28T06:50:22.965Z,9.83
2017-12-28T06:52:51.382Z,9.30
2017-12-28T06:55:19.740Z,5.47
2017-12-28T06:57:48.839Z,12.83
2017-12-28T07:00:18.228Z,9.37
2017-12-28T07:02:46.653Z,8.70
2017-12-28T07:05:14.984Z,6.93
2017-12-28T07:07:43.361Z,8.50
2017-12-28T07:10:11.719Z,9.53
2017-12-28T07:12:40.051Z,11.17
2017-12-28T07:15:08.395Z,5.10
2017-12-28T07:17:36.731Z,8.40
2017-12-28T07:20:05.086Z,5.07
2017-12-28T07:22:34.174Z,9.20
2017-12-28T07:25:03.291Z,16.43
2017-12-28T07:27:31.627Z,12.97
2017-12-28T07:29:59.973Z,7.90
2017-12-28T07:32:28.330Z,13.53
2017-12-28T07:34:56.664Z,15.07
2017-12-28T07:37:25.098Z,9.80
2017-12-28T07:39:53.455Z,12.07
2017-12-28T07:42:21.838Z,7.80
2017-12-28T07:44:50.308Z,8.90
2017-12-28T07:47:18.648Z,11.27
2017-12-28T07:49:46.992Z,10.33
2017-12-28T07:52:15.416Z,9.67
2017-12-28T07:54:43.744Z,9.53
2017-12-28T07:57:12.091Z,6.40
2017-12-28T07:59:41.198Z,9.90
2017-12-28T08:02:10.320Z,9.73
2017-12-28T08:04:38.691Z,9.87
2017-12-28T08:07:07.018Z,9.37
2017-12-28T08:09:35.467Z,9.40
2017-12-28T08:12:03.796Z,7.00
2017-12-28T08:14:33.041Z,11.93
2017-12-28T08:17:01.388Z,7.93
2017-12-28T08:19:30.484Z,12.40
2017-12-28T08:21:58.824Z,10.23
2017-12-28T08:24:27.176Z,11.47
2017-12-28T08:26:55.535Z,10.03
2017-12-28T08:29:23.915Z,10.10
2017-12-28T08:31:52.252Z,10.23
2017-12-28T08:34:20.587Z,11.40
2017-12-28T08:36:50.298Z,10.80
2017-12-28T08:39:18.645Z,14.23
2017-12-28T08:41:47.744Z,13.47
2017-12-28T08:44:16.152Z,8.57
2017-12-28T08:46:44.499Z,13.70
2017-12-28T08:49:12.838Z,15.27
2017-12-28T08:51:41.265Z,15.77
2017-12-28T08:54:10.357Z,8.97
2017-12-28T08:56:38.707Z,11.13
2017-12-28T08:59:07.050Z,10.53
2017-12-28T09:01:35.397Z,12.27
2017-12-28T09:04:04.507Z,9.90
2017-12-28T09:06:32.886Z,15.90
2017-12-28T09:09:01.255Z,9.03
2017-12-28T09:11:29.587Z,12.47
2017-12-28T09:13:57.917Z,13.90
2017-12-28T09:16:26.265Z,13.03
2017-12-28T09:18:55.425Z,11.83
2017-12-28T09:21:23.779Z,10.43
2017-12-28T09:23:52.114Z,12.07
2017-12-28T09:26:20.437Z,12.03
2017-12-28T09:28:48.848Z,9.67
2017-12-28T09:31:17.189Z,15.20
2017-12-28T09:33:46.282Z,13.67
2017-12-28T09:36:14.668Z,18.80
2017-12-28T09:38:43.042Z,17.43
2017-12-28T09:41:12.110Z,15.50
2017-12-28T09:43:41.286Z,14.00
2017-12-28T09:46:09.618Z,14.43
2017-12-28T09:48:38.042Z,11.47
2017-12-28T09:51:06.972Z,9.17
2017-12-28T09:53:35.298Z,15.10
2017-12-28T09:56:03.639Z,13.47
2017-12-28T09:58:32.069Z,11.37
2017-12-28T10:01:00.460Z,15.33
2017-12-28T10:03:28.807Z,9.53
2017-12-28T10:05:57.153Z,14.67
2017-12-28T10:08:25.542Z,10.77
2017-12-28T10:10:53.915Z,9.00
2017-12-28T10:13:22.246Z,12.97
2017-12-28T10:15:50.684Z,11.17
2017-12-28T10:18:19.056Z,13.20
2017-12-28T10:20:47.386Z,15.60
2017-12-28T10:23:15.816Z,10.60
2017-12-28T10:25:44.154Z,11.47
2017-12-28T10:28:12.536Z,12.20
2017-12-28T10:30:40.855Z,7.93
2017-12-28T10:33:09.220Z,15.90
2017-12-28T10:35:38.328Z,19.80
2017-12-28T10:38:06.705Z,17.87
2017-12-28T10:40:35.120Z,18.73
2017-12-28T10:43:03.446Z,14.70
2017-12-28T10:45:31.866Z,13.20
2017-12-28T10:48:00.221Z,15.67
2017-12-28T10:50:28.569Z,15.13
2017-12-28T10:52:57.683Z,11.27
2017-12-28T10:55:26.020Z,14.63
2017-12-28T10:57:54.388Z,14.20
2017-12-28T11:00:22.714Z,15.40
2017-12-28T11:02:51.116Z,15.90
2017-12-28T11:05:19.500Z,15.27
2017-12-28T11:07:47.966Z,18.80
2017-12-28T11:10:16.341Z,16.57
2017-12-28T11:12:44.742Z,17.90
2017-12-28T11:15:13.201Z,10.43
2017-12-28T11:17:41.545Z,10.90
2017-12-28T11:20:10.057Z,19.53
2017-12-28T11:22:38.400Z,8.80
2017-12-28T11:25:06.852Z,15.43
2017-12-28T11:27:35.217Z,10.00
2017-12-28T11:30:03.587Z,16.33
2017-12-28T11:32:31.927Z,12.10
2017-12-28T11:35:00.518Z,11.63
2017-12-28T11:37:28.850Z,15.33
2017-12-28T11:39:57.328Z,10.33
2017-12-28T11:42:25.688Z,16.17
2017-12-28T11:44:54.019Z,14.77
2017-12-28T11:47:22.354Z,10.97
2017-12-28T11:49:52.483Z,14.57
2017-12-28T11:52:21.602Z,12.37
2017-12-28T11:54:49.960Z,12.77
2017-12-28T11:57:24.339Z,14.47
2017-12-28T11:59:54.279Z,18.13
2017-12-28T12:02:28.375Z,12.13
2017-12-28T12:07:51.792Z,16.33
2017-12-28T12:10:23.083Z,15.43
2017-12-28T12:12:51.544Z,16.17
2017-12-28T12:15:19.874Z,14.13
2017-12-28T12:17:48.219Z,12.00
2017-12-28T12:20:16.548Z,9.40
2017-12-28T12:22:44.863Z,14.70
2017-12-28T12:25:13.302Z,16.93
2017-12-28T12:27:41.634Z,14.43
2017-12-28T12:30:09.981Z,9.13
2017-12-28T12:32:38.310Z,11.33
2017-12-28T12:35:07.420Z,13.93
2017-12-28T12:37:35.746Z,15.17
2017-12-28T12:40:04.109Z,11.10
2017-12-28T12:42:32.475Z,17.27
2017-12-28T12:45:00.817Z,15.37
2017-12-28T12:47:29.172Z,18.90
2017-12-28T12:49:57.494Z,11.07
2017-12-28T12:52:25.836Z,14.20
2017-12-28T12:54:54.179Z,17.67
2017-12-28T12:57:22.539Z,11.37
2017-12-28T12:59:50.911Z,11.47
2017-12-28T13:02:19.289Z,14.27
2017-12-28T13:04:47.601Z,13.40
2017-12-28T13:07:15.912Z,15.00
2017-12-28T13:09:44.249Z,10.10
2017-12-28T13:12:12.642Z,13.30
2017-12-28T13:14:41.025Z,16.37
2017-12-28T13:17:09.347Z,11.23
2017-12-28T13:19:37.693Z,15.87
2017-12-28T13:22:06.041Z,14.17
2017-12-28T13:24:35.293Z,13.00
2017-12-28T13:27:03.619Z,16.33
2017-12-28T13:29:31.982Z,13.70
2017-12-28T13:32:00.343Z,11.67
2017-12-28T13:34:28.736Z,7.03
2017-12-28T13:36:57.064Z,9.40
2017-12-28T13:39:25.413Z,11.20
2017-12-28T13:41:53.746Z,9.53
2017-12-28T13:44:22.878Z,16.67
2017-12-28T13:46:51.194Z,10.10
2017-12-28T13:49:19.646Z,12.60
2017-12-28T13:51:47.982Z,11.80
2017-12-28T13:54:17.119Z,18.07
2017-12-28T13:56:45.430Z,9.20
2017-12-28T13:59:13.763Z,11.47
2017-12-28T14:01:42.114Z,13.53
2017-12-28T14:04:11.229Z,8.17
2017-12-28T14:06:39.608Z,11.30
2017-12-28T14:09:08.070Z,14.17
2017-12-28T14:11:36.393Z,7.37
2017-12-28T14:14:04.805Z,13.50
2017-12-28T14:16:33.111Z,10.20
2017-12-28T14:19:01.503Z,9.73
2017-12-28T14:21:29.898Z,10.47
2017-12-28T14:23:58.232Z,8.83
2017-12-28T14:26:26.576Z,7.80
2017-12-28T14:28:54.982Z,14.60
2017-12-28T14:31:23.415Z,13.17
2017-12-28T14:33:51.933Z,8.03
2017-12-28T14:36:20.272Z,12.87
2017-12-28T14:38:48.604Z,9.77
2017-12-28T14:41:17.032Z,11.83
2017-12-28T14:43:45.371Z,8.93
2017-12-28T14:46:13.706Z,11.60
2017-12-28T14:48:42.108Z,9.53
2017-12-28T14:51:10.571Z,11.60
2017-12-28T14:53:38.914Z,10.17
2017-12-28T14:56:08.009Z,10.50
2017-12-28T14:58:36.499Z,9.77
2017-12-28T15:01:04.858Z,7.90
2017-12-28T15:03:33.945Z,9.97
2017-12-28T15:06:03.072Z,7.00
2017-12-28T15:08:31.468Z,8.47
2017-12-28T15:10:59.951Z,8.97
2017-12-28T15:13:28.318Z,12.27
2017-12-28T15:15:56.686Z,10.57
2017-12-28T15:18:25.025Z,9.47
2017-12-28T15:20:53.350Z,11.53
2017-12-28T15:23:21.721Z,11.00
2017-12-28T15:25:50.069Z,17.07
2017-12-28T15:28:18.400Z,8.43
2017-12-28T15:30:46.789Z,9.43
2017-12-28T15:33:15.119Z,8.20
2017-12-28T15:35:43.452Z,12.17
2017-12-28T15:38:11.774Z,15.07
2017-12-28T15:40:40.879Z,14.23
2017-12-28T15:43:10.099Z,10.70
2017-12-28T15:45:38.427Z,12.87
2017-12-28T15:48:06.754Z,10.87
2017-12-28T15:50:35.141Z,9.30
2017-12-28T15:53:03.479Z,8.80
2017-12-28T15:55:32.709Z,6.57
2017-12-28T15:58:01.029Z,12.70
2017-12-28T16:00:29.366Z,11.40
2017-12-28T16:02:57.753Z,10.70
2017-12-28T16:05:26.087Z,11.53
2017-12-28T16:07:54.582Z,11.70
2017-12-28T16:10:23.672Z,10.27
2017-12-28T16:12:52.782Z,13.50
2017-12-28T16:15:21.145Z,10.63
2017-12-28T16:17:50.251Z,13.30
2017-12-28T16:20:18.614Z,8.90
2017-12-28T16:22:47.775Z,9.97
2017-12-28T16:25:16.099Z,8.83
2017-12-28T16:27:45.199Z,13.20
2017-12-28T16:30:14.308Z,11.10
2017-12-28T16:32:42.660Z,9.43
2017-12-28T16:35:10.969Z,11.97
2017-12-28T16:37:39.359Z,9.33
2017-12-28T16:40:07.697Z,12.27
2017-12-28T16:42:36.082Z,11.67
2017-12-28T16:45:04.422Z,9.17
2017-12-28T16:47:32.747Z,13.23
2017-12-28T16:50:01.869Z,9.07
2017-12-28T16:52:30.207Z,11.37
2017-12-28T16:54:58.631Z,6.93
2017-12-28T16:57:26.977Z,12.67
2017-12-28T16:59:56.127Z,10.33
2017-12-28T17:02:24.793Z,11.23
2017-12-28T17:04:53.150Z,10.77
2017-12-28T17:07:21.587Z,14.00
2017-12-28T17:09:49.936Z,22.90
2017-12-28T17:12:18.284Z,10.63
2017-12-28T17:14:47.396Z,19.57
2017-12-28T17:17:15.799Z,18.90
2017-12-28T17:19:44.140Z,15.37
2017-12-28T17:22:13.285Z,15.57
2017-12-28T17:24:41.675Z,13.67
2017-12-28T17:27:10.071Z,13.67
2017-12-28T17:29:39.126Z,15.60
2017-12-28T17:32:08.124Z,13.33
2017-12-28T17:34:36.479Z,13.83
2017-12-28T17:37:04.798Z,14.53
2017-12-28T17:39:33.179Z,17.43
2017-12-28T17:42:01.501Z,11.43
2017-12-28T17:44:30.715Z,13.83
2017-12-28T17:46:59.042Z,13.73
2017-12-28T17:49:27.519Z,12.13
2017-12-28T17:51:55.982Z,15.07
2017-12-28T17:54:24.314Z,14.63
2017-12-28T17:56:52.668Z,14.93
2017-12-28T17:59:21.195Z,12.10
2017-12-28T18:01:49.576Z,11.87
2017-12-28T18:04:17.963Z,12.47
2017-12-28T18:06:46.326Z,13.50
2017-12-28T18:09:14.850Z,13.50
2017-12-28T18:11:43.194Z,12.77
2017-12-28T18:14:11.589Z,9.73
2017-12-28T18:16:40.020Z,11.27
2017-12-28T18:19:08.344Z,12.73
2017-12-28T18:21:36.703Z,15.00
2017-12-28T18:24:05.900Z,11.17
2017-12-28T18:26:34.259Z,11.97
2017-12-28T18:29:02.591Z,12.23
2017-12-28T18:31:30.932Z,14.10
2017-12-28T18:33:59.276Z,13.30
2017-12-28T18:36:27.705Z,12.47
2017-12-28T18:38:56.369Z,12.10
2017-12-28T18:41:25.581Z,14.20
2017-12-28T18:43:53.920Z,17.93
2017-12-28T18:46:22.262Z,16.13
2017-12-28T18:48:50.630Z,16.60
2017-12-28T18:51:18.992Z,10.00
2017-12-28T18:53:47.331Z,17.63
2017-12-28T18:56:15.668Z,13.23
2017-12-28T18:58:44.007Z,21.33
2017-12-28T19:01:13.104Z,11.83
2017-12-28T19:03:42.223Z,13.37
2017-12-28T19:06:10.557Z,9.57
2017-12-28T19:08:38.902Z,9.27
2017-12-28T19:11:07.251Z,14.10
2017-12-28T19:13:35.589Z,16.67
2017-12-28T19:16:03.950Z,8.87
2017-12-28T19:18:32.283Z,15.73
2017-12-28T19:21:01.492Z,12.27
2017-12-28T19:23:29.831Z,11.30
2017-12-28T19:25:58.151Z,11.57
2017-12-28T19:28:26.497Z,8.87
2017-12-28T19:30:54.838Z,11.77
2017-12-28T19:33:23.207Z,13.77
2017-12-28T19:35:52.157Z,12.13
2017-12-28T19:38:20.577Z,13.53
2017-12-28T19:40:49.036Z,12.63
2017-12-28T19:43:17.363Z,12.30
2017-12-28T19:45:45.734Z,11.43
2017-12-28T19:48:14.082Z,9.13
2017-12-28T19:50:42.425Z,10.13
2017-12-28T19:53:10.765Z,12.27
2017-12-28T19:55:39.096Z,12.97
2017-12-28T19:58:08.221Z,14.13
2017-12-28T20:00:36.589Z,12.30
2017-12-28T20:03:04.985Z,12.60
2017-12-28T20:05:33.333Z,12.83
2017-12-28T20:08:02.448Z,12.00
2017-12-28T20:10:30.791Z,11.07
2017-12-28T20:12:59.891Z,9.43
2017-12-28T20:15:28.228Z,15.00
2017-12-28T20:17:56.586Z,14.57
2017-12-28T20:20:24.954Z,11.40
2017-12-28T20:22:53.310Z,12.83
2017-12-28T20:25:21.737Z,14.00
2017-12-28T20:27:50.100Z,13.93
2017-12-28T20:30:18.442Z,13.63
2017-12-28T20:32:46.789Z,13.70
2017-12-28T20:35:15.123Z,16.47
2017-12-28T20:37:43.460Z,11.17
2017-12-28T20:40:11.824Z,18.37
2017-12-28T20:42:40.194Z,11.90
2017-12-28T20:45:08.537Z,14.20
2017-12-28T20:47:36.985Z,13.60
2017-12-28T20:50:05.295Z,12.40
2017-12-28T20:52:33.643Z,12.03
2017-12-28T20:55:02.015Z,19.97
2017-12-28T20:57:30.349Z,12.80
2017-12-28T20:59:58.708Z,14.23
2017-12-28T21:02:27.049Z,15.60
2017-12-28T21:04:55.436Z,12.80
2017-12-28T21:07:23.925Z,13.00
2017-12-28T21:09:52.356Z,17.93
2017-12-28T21:12:20.716Z,12.80
2017-12-28T21:14:49.039Z,15.03
2017-12-28T21:17:17.821Z,18.07
2017-12-28T21:19:46.241Z,13.40
2017-12-28T21:22:14.580Z,13.83
2017-12-28T21:24:42.916Z,17.87
2017-12-28T21:27:11.260Z,17.60
2017-12-28T21:29:39.605Z,16.00
2017-12-28T21:32:07.944Z,16.07
2017-12-28T21:34:37.069Z,14.90
2017-12-28T21:37:05.406Z,16.53
2017-12-28T21:39:34.502Z,18.03
2017-12-28T21:42:03.621Z,16.50
2017-12-28T21:44:31.972Z,15.03
2017-12-28T21:47:01.104Z,14.30
2017-12-28T21:49:29.488Z,17.67
2017-12-28T21:51:57.868Z,16.40
2017-12-28T21:54:26.245Z,14.53
2017-12-28T21:56:54.594Z,20.37
2017-12-28T21:59:23.727Z,16.43
2017-12-28T22:01:52.092Z,14.23
2017-12-28T22:04:20.420Z,16.37
2017-12-28T22:06:48.773Z,20.17
2017-12-28T22:09:17.153Z,18.93
2017-12-28T22:11:45.494Z,20.90
2017-12-28T22:14:14.592Z,15.87
2017-12-28T22:16:43.004Z,18.00
2017-12-28T22:19:12.359Z,11.83
2017-12-28T22:21:41.517Z,14.80
2017-12-28T22:24:09.842Z,14.00
2017-12-28T22:26:38.955Z,16.20
2017-12-28T22:29:07.300Z,17.03
2017-12-28T22:31:35.678Z,15.03
2017-12-28T22:34:04.009Z,16.07
2017-12-28T22:36:32.592Z,19.93
2017-12-28T22:39:00.941Z,17.27
2017-12-28T22:41:29.317Z,15.90
2017-12-28T22:43:58.406Z,14.63
2017-12-28T22:46:27.511Z,15.67
2017-12-28T22:48:56.962Z,18.37
2017-12-28T22:51:25.765Z,16.90
2017-12-28T22:53:54.809Z,18.33
2017-12-28T22:56:23.174Z,17.60
2017-12-28T22:58:52.745Z,16.40
2017-12-28T23:01:21.113Z,18.40
2017-12-28T23:03:49.807Z,14.27
2017-12-28T23:06:18.630Z,16.70
2017-12-28T23:08:47.007Z,19.47
2017-12-28T23:11:15.844Z,16.00
2017-12-28T23:13:44.212Z,19.80
2017-12-28T23:16:12.555Z,16.00
2017-12-28T23:18:40.988Z,19.73
2017-12-28T23:21:09.350Z,18.30
2017-12-28T23:23:37.695Z,16.83
2017-12-28T23:26:07.256Z,14.30
2017-12-28T23:28:36.552Z,15.57
2017-12-28T23:31:04.961Z,19.37
2017-12-28T23:33:33.315Z,17.00
2017-12-28T23:36:01.696Z,19.53
2017-12-28T23:38:30.035Z,15.83
2017-12-28T23:40:58.376Z,15.50
2017-12-28T23:43:26.752Z,18.50
2017-12-28T23:45:55.135Z,15.80
2017-12-28T23:48:23.783Z,17.30
2017-12-28T23:50:52.121Z,16.47
2017-12-28T23:53:21.225Z,18.57
2017-12-28T23:55:50.330Z,15.70
2017-12-28T23:58:18.678Z,17.83
